sensor_id;sensor_type;location;lat;lon;timestamp;temperature;humidity
7232;DHT22;3657;49.630;11.018;2024-03-08T00:01:31;2.50;99.90
7232;DHT22;3657;49.630;11.018;2024-03-08T00:03:59;2.60;99.90
7232;DHT22;3657;49.630;11.018;2024-03-08T00:06:26;2.60;99.90
7232;DHT22;3657;49.630;11.018;2024-03-08T00:08:53;2.50;99.90
7232;DHT22;3657;49.630;11.018;2024-03-08T00:11:19;2.50;99.90
7232;DHT22;3657;49.630;11.018;2024-03-08T00:13:47;2.50;99.90
7232;DHT22;3657;49.630;11.018;2024-03-08T00:16:13;2.50;99.90
7232;DHT22;3657;49.630;11.018;2024-03-08T00:18:40;2.60;99.90
7232;DHT22;3657;49.630;11.018;2024-03-08T00:21:08;2.70;99.90
7232;DHT22;3657;49.630;11.018;2024-03-08T00:23:35;2.60;99.90
7232;DHT22;3657;49.630;11.018;2024-03-08T00:26:02;2.60;99.90
7232;DHT22;3657;49.630;11.018;2024-03-08T00:28:30;2.60;99.90
7232;DHT22;3657;49.630;11.018;2024-03-08T00:30:57;2.60;99.90
7232;DHT22;3657;49.630;11.018;2024-03-08T00:33:23;2.50;99.90
7232;DHT22;3657;49.630;11.018;2024-03-08T00:35:50;2.50;99.90
7232;DHT22;3657;49.630;11.018;2024-03-08T00:38:18;2.40;99.90
7232;DHT22;3657;49.630;11.018;2024-03-08T00:40:45;2.40;99.90
7232;DHT22;3657;49.630;11.018;2024-03-08T00:43:12;2.40;99.90
7232;DHT22;3657;49.630;11.018;2024-03-08T00:45:38;2.40;99.90
7232;DHT22;3657;49.630;11.018;2024-03-08T00:48:08;2.50;99.90
7232;DHT22;3657;49.630;11.018;2024-03-08T00:50:34;2.50;99.90
7232;DHT22;3657;49.630;11.018;2024-03-08T00:53:01;2.50;99.90
7232;DHT22;3657;49.630;11.018;2024-03-08T00:55:29;2.50;99.90
7232;DHT22;3657;49.630;11.018;2024-03-08T00:57:56;2.60;99.90
7232;DHT22;3657;49.630;11.018;2024-03-08T01:00:23;2.60;99.90
7232;DHT22;3657;49.630;11.018;2024-03-08T01:02:51;2.60;99.90
7232;DHT22;3657;49.630;11.018;2024-03-08T01:05:17;2.70;99.90
7232;DHT22;3657;49.630;11.018;2024-03-08T01:07:44;2.60;99.90
7232;DHT22;3657;49.630;11.018;2024-03-08T01:10:12;2.50;99.90
7232;DHT22;3657;49.630;11.018;2024-03-08T01:12:40;2.40;99.90
7232;DHT22;3657;49.630;11.018;2024-03-08T01:15:09;2.40;99.90
7232;DHT22;3657;49.630;11.018;2024-03-08T01:17:36;2.30;99.90
7232;DHT22;3657;49.630;11.018;2024-03-08T01:20:03;2.30;99.90
7232;DHT22;3657;49.630;11.018;2024-03-08T01:22:30;2.20;99.90
7232;DHT22;3657;49.630;11.018;2024-03-08T01:24:57;2.20;99.90
7232;DHT22;3657;49.630;11.018;2024-03-08T01:27:24;2.20;99.90
7232;DHT22;3657;49.630;11.018;2024-03-08T01:29:52;2.10;99.90
7232;DHT22;3657;49.630;11.018;2024-03-08T01:32:19;2.20;99.90
7232;DHT22;3657;49.630;11.018;2024-03-08T01:34:48;2.20;99.90
7232;DHT22;3657;49.630;11.018;2024-03-08T01:37:15;2.20;99.90
7232;DHT22;3657;49.630;11.018;2024-03-08T01:39:42;2.20;99.90
7232;DHT22;3657;49.630;11.018;2024-03-08T01:42:09;2.10;99.90
7232;DHT22;3657;49.630;11.018;2024-03-08T01:44:38;2.00;99.90
7232;DHT22;3657;49.630;11.018;2024-03-08T01:47:06;2.00;99.90
7232;DHT22;3657;49.630;11.018;2024-03-08T01:49:33;2.00;99.90
7232;DHT22;3657;49.630;11.018;2024-03-08T01:52:00;1.80;99.90
7232;DHT22;3657;49.630;11.018;2024-03-08T01:54:27;1.90;99.90
7232;DHT22;3657;49.630;11.018;2024-03-08T01:56:56;1.90;99.90
7232;DHT22;3657;49.630;11.018;2024-03-08T01:59:24;1.80;99.90
7232;DHT22;3657;49.630;11.018;2024-03-08T02:01:53;1.80;99.90
7232;DHT22;3657;49.630;11.018;2024-03-08T02:04:23;1.90;99.90
7232;DHT22;3657;49.630;11.018;2024-03-08T02:06:50;1.90;99.90
7232;DHT22;3657;49.630;11.018;2024-03-08T02:09:17;1.90;99.90
7232;DHT22;3657;49.630;11.018;2024-03-08T02:11:44;1.90;99.90
7232;DHT22;3657;49.630;11.018;2024-03-08T02:14:11;1.90;99.90
7232;DHT22;3657;49.630;11.018;2024-03-08T02:16:38;1.90;99.90
7232;DHT22;3657;49.630;11.018;2024-03-08T02:19:05;1.90;99.90
7232;DHT22;3657;49.630;11.018;2024-03-08T02:21:36;1.90;99.90
7232;DHT22;3657;49.630;11.018;2024-03-08T02:24:04;1.90;99.90
7232;DHT22;3657;49.630;11.018;2024-03-08T02:26:30;1.90;99.90
7232;DHT22;3657;49.630;11.018;2024-03-08T02:28:57;1.80;99.90
7232;DHT22;3657;49.630;11.018;2024-03-08T02:31:24;1.80;99.90
7232;DHT22;3657;49.630;11.018;2024-03-08T02:33:50;1.80;99.90
7232;DHT22;3657;49.630;11.018;2024-03-08T02:36:17;1.80;99.90
7232;DHT22;3657;49.630;11.018;2024-03-08T02:38:45;1.70;99.90
7232;DHT22;3657;49.630;11.018;2024-03-08T02:41:12;1.70;99.90
7232;DHT22;3657;49.630;11.018;2024-03-08T02:43:39;1.70;99.90
7232;DHT22;3657;49.630;11.018;2024-03-08T02:46:06;1.70;99.90
7232;DHT22;3657;49.630;11.018;2024-03-08T02:48:32;1.70;99.90
7232;DHT22;3657;49.630;11.018;2024-03-08T02:50:59;1.70;99.90
7232;DHT22;3657;49.630;11.018;2024-03-08T02:53:27;1.70;99.90
7232;DHT22;3657;49.630;11.018;2024-03-08T02:55:55;1.70;99.90
7232;DHT22;3657;49.630;11.018;2024-03-08T02:58:22;1.70;99.90
7232;DHT22;3657;49.630;11.018;2024-03-08T03:00:49;1.70;99.90
7232;DHT22;3657;49.630;11.018;2024-03-08T03:03:16;1.70;99.90
7232;DHT22;3657;49.630;11.018;2024-03-08T03:05:42;1.60;99.90
7232;DHT22;3657;49.630;11.018;2024-03-08T03:08:09;1.60;99.90
7232;DHT22;3657;49.630;11.018;2024-03-08T03:10:37;1.60;99.90
7232;DHT22;3657;49.630;11.018;2024-03-08T03:13:05;1.60;99.90
7232;DHT22;3657;49.630;11.018;2024-03-08T03:15:32;1.60;99.90
7232;DHT22;3657;49.630;11.018;2024-03-08T03:18:00;1.50;99.90
7232;DHT22;3657;49.630;11.018;2024-03-08T03:20:27;1.50;99.90
7232;DHT22;3657;49.630;11.018;2024-03-08T03:22:58;1.50;99.90
7232;DHT22;3657;49.630;11.018;2024-03-08T03:25:27;1.60;99.90
7232;DHT22;3657;49.630;11.018;2024-03-08T03:27:59;1.60;99.90
7232;DHT22;3657;49.630;11.018;2024-03-08T03:30:27;1.60;99.90
7232;DHT22;3657;49.630;11.018;2024-03-08T03:32:58;1.50;99.90
7232;DHT22;3657;49.630;11.018;2024-03-08T03:35:26;1.50;99.90
7232;DHT22;3657;49.630;11.018;2024-03-08T03:37:53;1.60;99.90
7232;DHT22;3657;49.630;11.018;2024-03-08T03:40:32;1.60;99.90
7232;DHT22;3657;49.630;11.018;2024-03-08T03:42:59;1.60;99.90
7232;DHT22;3657;49.630;11.018;2024-03-08T03:45:27;1.60;99.90
7232;DHT22;3657;49.630;11.018;2024-03-08T03:47:54;1.50;99.90
7232;DHT22;3657;49.630;11.018;2024-03-08T03:50:21;1.50;99.90
7232;DHT22;3657;49.630;11.018;2024-03-08T03:52:49;1.50;99.90
7232;DHT22;3657;49.630;11.018;2024-03-08T03:55:16;1.40;99.90
7232;DHT22;3657;49.630;11.018;2024-03-08T03:57:43;1.40;99.90
7232;DHT22;3657;49.630;11.018;2024-03-08T04:00:12;1.40;99.90
7232;DHT22;3657;49.630;11.018;2024-03-08T04:02:40;1.40;99.90
7232;DHT22;3657;49.630;11.018;2024-03-08T04:05:08;1.40;99.90
7232;DHT22;3657;49.630;11.018;2024-03-08T04:07:35;1.40;99.90
7232;DHT22;3657;49.630;11.018;2024-03-08T04:10:03;1.50;99.90
7232;DHT22;3657;49.630;11.018;2024-03-08T04:12:31;1.50;99.90
7232;DHT22;3657;49.630;11.018;2024-03-08T04:14:58;1.40;99.90
7232;DHT22;3657;49.630;11.018;2024-03-08T04:17:25;1.50;99.90
7232;DHT22;3657;49.630;11.018;2024-03-08T04:19:53;1.60;99.90
7232;DHT22;3657;49.630;11.018;2024-03-08T04:22:20;1.70;99.90
7232;DHT22;3657;49.630;11.018;2024-03-08T04:24:48;1.80;99.90
7232;DHT22;3657;49.630;11.018;2024-03-08T04:27:14;1.80;99.90
7232;DHT22;3657;49.630;11.018;2024-03-08T04:29:41;1.80;99.90
7232;DHT22;3657;49.630;11.018;2024-03-08T04:32:10;1.90;99.90
7232;DHT22;3657;49.630;11.018;2024-03-08T04:34:39;2.00;99.90
7232;DHT22;3657;49.630;11.018;2024-03-08T04:37:07;1.90;99.90
7232;DHT22;3657;49.630;11.018;2024-03-08T04:39:36;1.90;99.90
7232;DHT22;3657;49.630;11.018;2024-03-08T04:42:03;1.90;99.90
7232;DHT22;3657;49.630;11.018;2024-03-08T04:44:32;1.90;99.90
7232;DHT22;3657;49.630;11.018;2024-03-08T04:46:59;1.90;99.90
7232;DHT22;3657;49.630;11.018;2024-03-08T04:49:26;1.80;99.90
7232;DHT22;3657;49.630;11.018;2024-03-08T04:51:53;1.90;99.90
7232;DHT22;3657;49.630;11.018;2024-03-08T04:54:21;2.00;99.90
7232;DHT22;3657;49.630;11.018;2024-03-08T04:56:48;2.00;99.90
7232;DHT22;3657;49.630;11.018;2024-03-08T04:59:15;2.00;99.90
7232;DHT22;3657;49.630;11.018;2024-03-08T05:01:41;2.00;99.90
7232;DHT22;3657;49.630;11.018;2024-03-08T05:04:08;2.00;99.90
7232;DHT22;3657;49.630;11.018;2024-03-08T05:06:35;2.00;99.90
7232;DHT22;3657;49.630;11.018;2024-03-08T05:09:02;2.00;99.90
7232;DHT22;3657;49.630;11.018;2024-03-08T05:11:40;2.00;99.90
7232;DHT22;3657;49.630;11.018;2024-03-08T05:14:07;2.10;99.90
7232;DHT22;3657;49.630;11.018;2024-03-08T05:16:34;2.10;99.90
7232;DHT22;3657;49.630;11.018;2024-03-08T05:19:01;2.10;99.90
7232;DHT22;3657;49.630;11.018;2024-03-08T05:21:28;2.10;99.90
7232;DHT22;3657;49.630;11.018;2024-03-08T05:23:55;2.10;99.90
7232;DHT22;3657;49.630;11.018;2024-03-08T05:26:22;2.10;99.90
7232;DHT22;3657;49.630;11.018;2024-03-08T05:28:50;2.10;99.90
7232;DHT22;3657;49.630;11.018;2024-03-08T05:31:20;2.10;99.90
7232;DHT22;3657;49.630;11.018;2024-03-08T05:33:48;2.00;99.90
7232;DHT22;3657;49.630;11.018;2024-03-08T05:36:16;2.00;99.90
7232;DHT22;3657;49.630;11.018;2024-03-08T05:38:47;2.00;99.90
7232;DHT22;3657;49.630;11.018;2024-03-08T05:41:16;2.00;99.90
7232;DHT22;3657;49.630;11.018;2024-03-08T05:43:42;2.10;99.90
7232;DHT22;3657;49.630;11.018;2024-03-08T05:46:11;2.10;99.90
7232;DHT22;3657;49.630;11.018;2024-03-08T05:48:38;2.00;99.90
7232;DHT22;3657;49.630;11.018;2024-03-08T05:51:05;2.00;99.90
7232;DHT22;3657;49.630;11.018;2024-03-08T05:53:31;2.00;99.90
7232;DHT22;3657;49.630;11.018;2024-03-08T05:55:59;2.10;99.90
7232;DHT22;3657;49.630;11.018;2024-03-08T05:58:27;2.10;99.90
7232;DHT22;3657;49.630;11.018;2024-03-08T06:00:55;2.00;99.90
7232;DHT22;3657;49.630;11.018;2024-03-08T06:03:23;2.00;99.90
7232;DHT22;3657;49.630;11.018;2024-03-08T06:05:50;2.00;99.90
7232;DHT22;3657;49.630;11.018;2024-03-08T06:08:18;2.00;99.90
7232;DHT22;3657;49.630;11.018;2024-03-08T06:10:45;2.10;99.90
7232;DHT22;3657;49.630;11.018;2024-03-08T06:13:14;2.10;99.90
7232;DHT22;3657;49.630;11.018;2024-03-08T06:15:41;2.30;99.90
7232;DHT22;3657;49.630;11.018;2024-03-08T06:18:08;2.10;99.90
7232;DHT22;3657;49.630;11.018;2024-03-08T06:20:38;2.20;99.90
7232;DHT22;3657;49.630;11.018;2024-03-08T06:23:09;2.20;99.90
7232;DHT22;3657;49.630;11.018;2024-03-08T06:25:35;2.20;99.90
7232;DHT22;3657;49.630;11.018;2024-03-08T06:28:02;2.20;99.90
7232;DHT22;3657;49.630;11.018;2024-03-08T06:30:29;2.20;99.90
7232;DHT22;3657;49.630;11.018;2024-03-08T06:32:56;2.30;99.90
7232;DHT22;3657;49.630;11.018;2024-03-08T06:35:23;2.40;99.90
7232;DHT22;3657;49.630;11.018;2024-03-08T06:37:51;2.40;99.90
7232;DHT22;3657;49.630;11.018;2024-03-08T06:40:18;2.50;99.90
7232;DHT22;3657;49.630;11.018;2024-03-08T06:42:44;2.60;99.90
7232;DHT22;3657;49.630;11.018;2024-03-08T06:45:11;2.60;99.90
7232;DHT22;3657;49.630;11.018;2024-03-08T06:47:38;2.80;99.90
7232;DHT22;3657;49.630;11.018;2024-03-08T06:50:07;2.70;99.90
7232;DHT22;3657;49.630;11.018;2024-03-08T06:52:34;2.70;99.90
7232;DHT22;3657;49.630;11.018;2024-03-08T06:55:03;2.80;99.90
7232;DHT22;3657;49.630;11.018;2024-03-08T06:57:30;3.00;99.90
7232;DHT22;3657;49.630;11.018;2024-03-08T06:59:57;3.10;99.90
7232;DHT22;3657;49.630;11.018;2024-03-08T07:02:24;3.00;99.90
7232;DHT22;3657;49.630;11.018;2024-03-08T07:04:51;3.20;99.90
7232;DHT22;3657;49.630;11.018;2024-03-08T07:07:18;3.30;99.90
7232;DHT22;3657;49.630;11.018;2024-03-08T07:09:46;3.30;99.90
7232;DHT22;3657;49.630;11.018;2024-03-08T07:12:16;3.30;99.90
7232;DHT22;3657;49.630;11.018;2024-03-08T07:14:43;3.50;99.90
7232;DHT22;3657;49.630;11.018;2024-03-08T07:17:11;3.50;99.90
7232;DHT22;3657;49.630;11.018;2024-03-08T07:19:38;3.60;99.90
7232;DHT22;3657;49.630;11.018;2024-03-08T07:22:05;3.60;99.90
7232;DHT22;3657;49.630;11.018;2024-03-08T07:24:34;3.80;99.90
7232;DHT22;3657;49.630;11.018;2024-03-08T07:27:22;3.80;99.90
7232;DHT22;3657;49.630;11.018;2024-03-08T07:29:49;3.80;99.90
7232;DHT22;3657;49.630;11.018;2024-03-08T07:32:16;3.90;99.90
7232;DHT22;3657;49.630;11.018;2024-03-08T07:34:47;4.00;99.90
7232;DHT22;3657;49.630;11.018;2024-03-08T07:37:14;4.20;99.90
7232;DHT22;3657;49.630;11.018;2024-03-08T07:39:41;4.30;99.90
7232;DHT22;3657;49.630;11.018;2024-03-08T07:42:09;4.40;99.90
7232;DHT22;3657;49.630;11.018;2024-03-08T07:44:38;4.40;99.90
7232;DHT22;3657;49.630;11.018;2024-03-08T07:47:05;4.40;99.90
7232;DHT22;3657;49.630;11.018;2024-03-08T07:49:35;4.40;99.90
7232;DHT22;3657;49.630;11.018;2024-03-08T07:52:02;4.50;99.90
7232;DHT22;3657;49.630;11.018;2024-03-08T07:54:29;4.60;99.90
7232;DHT22;3657;49.630;11.018;2024-03-08T07:56:56;4.80;99.90
7232;DHT22;3657;49.630;11.018;2024-03-08T07:59:23;4.70;99.90
7232;DHT22;3657;49.630;11.018;2024-03-08T08:01:51;4.60;99.90
7232;DHT22;3657;49.630;11.018;2024-03-08T08:04:18;4.70;99.90
7232;DHT22;3657;49.630;11.018;2024-03-08T08:06:50;4.70;99.90
7232;DHT22;3657;49.630;11.018;2024-03-08T08:09:16;4.70;99.90
7232;DHT22;3657;49.630;11.018;2024-03-08T08:11:54;4.80;99.90
7232;DHT22;3657;49.630;11.018;2024-03-08T08:14:20;5.10;99.90
7232;DHT22;3657;49.630;11.018;2024-03-08T08:16:47;5.20;99.90
7232;DHT22;3657;49.630;11.018;2024-03-08T08:19:18;4.80;99.90
7232;DHT22;3657;49.630;11.018;2024-03-08T08:21:46;4.90;99.90
7232;DHT22;3657;49.630;11.018;2024-03-08T08:24:13;5.00;99.90
7232;DHT22;3657;49.630;11.018;2024-03-08T08:26:40;5.20;99.90
7232;DHT22;3657;49.630;11.018;2024-03-08T08:29:06;5.40;99.90
7232;DHT22;3657;49.630;11.018;2024-03-08T08:31:33;5.30;99.90
7232;DHT22;3657;49.630;11.018;2024-03-08T08:34:00;5.40;99.90
7232;DHT22;3657;49.630;11.018;2024-03-08T08:36:29;5.50;99.90
7232;DHT22;3657;49.630;11.018;2024-03-08T08:38:57;5.50;99.90
7232;DHT22;3657;49.630;11.018;2024-03-08T08:41:25;5.50;99.90
7232;DHT22;3657;49.630;11.018;2024-03-08T08:43:52;5.60;99.90
7232;DHT22;3657;49.630;11.018;2024-03-08T08:46:19;6.00;99.90
7232;DHT22;3657;49.630;11.018;2024-03-08T08:48:46;6.00;99.90
7232;DHT22;3657;49.630;11.018;2024-03-08T08:51:14;6.00;99.90
7232;DHT22;3657;49.630;11.018;2024-03-08T08:53:42;6.00;99.90
7232;DHT22;3657;49.630;11.018;2024-03-08T08:56:11;6.10;99.90
7232;DHT22;3657;49.630;11.018;2024-03-08T08:58:38;5.90;99.90
7232;DHT22;3657;49.630;11.018;2024-03-08T09:01:06;5.90;99.90
7232;DHT22;3657;49.630;11.018;2024-03-08T09:03:33;6.10;99.90
7232;DHT22;3657;49.630;11.018;2024-03-08T09:06:00;6.30;99.90
7232;DHT22;3657;49.630;11.018;2024-03-08T09:08:31;6.40;99.90
7232;DHT22;3657;49.630;11.018;2024-03-08T09:11:01;6.50;99.90
7232;DHT22;3657;49.630;11.018;2024-03-08T09:13:28;7.00;99.90
7232;DHT22;3657;49.630;11.018;2024-03-08T09:15:54;7.20;99.90
7232;DHT22;3657;49.630;11.018;2024-03-08T09:18:21;7.30;99.90
7232;DHT22;3657;49.630;11.018;2024-03-08T09:20:49;7.30;99.90
7232;DHT22;3657;49.630;11.018;2024-03-08T09:23:18;7.20;99.90
7232;DHT22;3657;49.630;11.018;2024-03-08T09:25:45;7.20;99.90
7232;DHT22;3657;49.630;11.018;2024-03-08T09:28:14;7.40;99.90
7232;DHT22;3657;49.630;11.018;2024-03-08T09:30:41;7.60;99.90
7232;DHT22;3657;49.630;11.018;2024-03-08T09:33:08;7.80;99.90
7232;DHT22;3657;49.630;11.018;2024-03-08T09:35:35;8.00;99.90
7232;DHT22;3657;49.630;11.018;2024-03-08T09:38:02;8.20;99.90
7232;DHT22;3657;49.630;11.018;2024-03-08T09:40:30;8.30;99.90
7232;DHT22;3657;49.630;11.018;2024-03-08T09:42:57;8.30;99.90
7232;DHT22;3657;49.630;11.018;2024-03-08T09:45:26;8.10;99.90
7232;DHT22;3657;49.630;11.018;2024-03-08T09:47:55;8.10;99.90
7232;DHT22;3657;49.630;11.018;2024-03-08T09:50:22;8.30;99.90
7232;DHT22;3657;49.630;11.018;2024-03-08T09:52:49;8.10;99.90
7232;DHT22;3657;49.630;11.018;2024-03-08T09:55:16;8.30;99.90
7232;DHT22;3657;49.630;11.018;2024-03-08T09:57:48;8.00;99.90
7232;DHT22;3657;49.630;11.018;2024-03-08T10:00:30;7.80;99.90
7232;DHT22;3657;49.630;11.018;2024-03-08T10:03:01;7.90;99.90
7232;DHT22;3657;49.630;11.018;2024-03-08T10:05:28;8.20;99.90
7232;DHT22;3657;49.630;11.018;2024-03-08T10:07:54;8.70;99.90
7232;DHT22;3657;49.630;11.018;2024-03-08T10:10:21;8.50;99.90
7232;DHT22;3657;49.630;11.018;2024-03-08T10:12:48;8.70;99.90
7232;DHT22;3657;49.630;11.018;2024-03-08T10:15:16;9.00;99.90
7232;DHT22;3657;49.630;11.018;2024-03-08T10:17:44;9.00;99.90
7232;DHT22;3657;49.630;11.018;2024-03-08T10:20:14;9.10;99.90
7232;DHT22;3657;49.630;11.018;2024-03-08T10:22:41;9.40;99.90
7232;DHT22;3657;49.630;11.018;2024-03-08T10:25:09;9.30;99.90
7232;DHT22;3657;49.630;11.018;2024-03-08T10:27:38;9.40;99.90
7232;DHT22;3657;49.630;11.018;2024-03-08T10:30:06;9.60;99.90
7232;DHT22;3657;49.630;11.018;2024-03-08T10:32:35;9.50;99.90
7232;DHT22;3657;49.630;11.018;2024-03-08T10:35:03;9.90;99.90
7232;DHT22;3657;49.630;11.018;2024-03-08T10:37:30;10.10;99.90
7232;DHT22;3657;49.630;11.018;2024-03-08T10:40:03;9.70;99.70
7232;DHT22;3657;49.630;11.018;2024-03-08T10:42:38;9.90;99.90
7232;DHT22;3657;49.630;11.018;2024-03-08T10:45:14;10.20;99.80
7232;DHT22;3657;49.630;11.018;2024-03-08T10:47:41;10.60;99.80
7232;DHT22;3657;49.630;11.018;2024-03-08T10:50:19;10.20;98.60
7232;DHT22;3657;49.630;11.018;2024-03-08T10:52:49;10.30;99.90
7232;DHT22;3657;49.630;11.018;2024-03-08T10:55:17;10.10;99.70
7232;DHT22;3657;49.630;11.018;2024-03-08T10:57:46;10.20;98.20
7232;DHT22;3657;49.630;11.018;2024-03-08T11:00:13;10.20;98.60
7232;DHT22;3657;49.630;11.018;2024-03-08T11:02:43;10.10;98.00
7232;DHT22;3657;49.630;11.018;2024-03-08T11:05:10;10.40;99.10
7232;DHT22;3657;49.630;11.018;2024-03-08T11:07:43;10.60;99.70
7232;DHT22;3657;49.630;11.018;2024-03-08T11:10:19;10.40;98.10
7232;DHT22;3657;49.630;11.018;2024-03-08T11:12:46;10.40;98.20
7232;DHT22;3657;49.630;11.018;2024-03-08T11:15:13;10.60;99.00
7232;DHT22;3657;49.630;11.018;2024-03-08T11:17:47;10.70;99.90
7232;DHT22;3657;49.630;11.018;2024-03-08T11:20:15;10.70;98.50
7232;DHT22;3657;49.630;11.018;2024-03-08T11:22:48;10.70;99.90
7232;DHT22;3657;49.630;11.018;2024-03-08T11:25:33;10.70;97.70
7232;DHT22;3657;49.630;11.018;2024-03-08T11:28:13;10.50;97.40
7232;DHT22;3657;49.630;11.018;2024-03-08T11:33:46;10.60;98.20
7232;DHT22;3657;49.630;11.018;2024-03-08T11:36:20;10.60;98.10
7232;DHT22;3657;49.630;11.018;2024-03-08T11:38:49;10.70;99.60
7232;DHT22;3657;49.630;11.018;2024-03-08T11:41:18;10.90;99.90
7232;DHT22;3657;49.630;11.018;2024-03-08T11:43:45;10.90;97.50
7232;DHT22;3657;49.630;11.018;2024-03-08T11:46:13;10.80;98.70
7232;DHT22;3657;49.630;11.018;2024-03-08T11:48:40;11.00;97.70
7232;DHT22;3657;49.630;11.018;2024-03-08T11:51:08;11.30;97.20
7232;DHT22;3657;49.630;11.018;2024-03-08T11:53:37;11.00;96.70
7232;DHT22;3657;49.630;11.018;2024-03-08T11:56:09;11.00;98.30
7232;DHT22;3657;49.630;11.018;2024-03-08T11:58:36;11.10;97.40
7232;DHT22;3657;49.630;11.018;2024-03-08T12:01:04;10.80;97.60
7232;DHT22;3657;49.630;11.018;2024-03-08T12:03:32;10.90;96.70
7232;DHT22;3657;49.630;11.018;2024-03-08T12:05:59;10.90;97.60
7232;DHT22;3657;49.630;11.018;2024-03-08T12:08:27;11.00;97.20
7232;DHT22;3657;49.630;11.018;2024-03-08T12:10:55;10.80;98.30
7232;DHT22;3657;49.630;11.018;2024-03-08T12:13:26;10.90;96.70
7232;DHT22;3657;49.630;11.018;2024-03-08T12:15:56;10.70;96.70
7232;DHT22;3657;49.630;11.018;2024-03-08T12:18:24;10.80;99.20
7232;DHT22;3657;49.630;11.018;2024-03-08T12:20:50;10.70;98.00
7232;DHT22;3657;49.630;11.018;2024-03-08T12:23:17;10.80;99.60
7232;DHT22;3657;49.630;11.018;2024-03-08T12:25:44;10.80;98.70
7232;DHT22;3657;49.630;11.018;2024-03-08T12:28:12;10.80;97.30
7232;DHT22;3657;49.630;11.018;2024-03-08T12:30:46;10.80;96.10
7232;DHT22;3657;49.630;11.018;2024-03-08T12:33:14;10.60;96.30
7232;DHT22;3657;49.630;11.018;2024-03-08T12:35:40;10.70;98.30
7232;DHT22;3657;49.630;11.018;2024-03-08T12:38:08;10.60;98.00
7232;DHT22;3657;49.630;11.018;2024-03-08T12:40:35;10.60;97.60
7232;DHT22;3657;49.630;11.018;2024-03-08T12:43:06;10.60;96.40
7232;DHT22;3657;49.630;11.018;2024-03-08T12:45:33;10.80;97.50
7232;DHT22;3657;49.630;11.018;2024-03-08T12:48:01;10.90;98.10
7232;DHT22;3657;49.630;11.018;2024-03-08T12:50:29;10.90;97.40
7232;DHT22;3657;49.630;11.018;2024-03-08T12:52:56;10.90;96.10
7232;DHT22;3657;49.630;11.018;2024-03-08T12:55:23;10.90;96.50
7232;DHT22;3657;49.630;11.018;2024-03-08T12:57:50;10.90;96.50
7232;DHT22;3657;49.630;11.018;2024-03-08T13:00:18;10.90;97.20
7232;DHT22;3657;49.630;11.018;2024-03-08T13:02:45;10.90;96.20
7232;DHT22;3657;49.630;11.018;2024-03-08T13:05:14;10.70;96.50
7232;DHT22;3657;49.630;11.018;2024-03-08T13:07:41;10.80;97.20
7232;DHT22;3657;49.630;11.018;2024-03-08T13:10:12;11.00;97.50
7232;DHT22;3657;49.630;11.018;2024-03-08T13:12:40;11.00;95.40
7232;DHT22;3657;49.630;11.018;2024-03-08T13:15:07;11.10;98.00
7232;DHT22;3657;49.630;11.018;2024-03-08T13:17:37;11.20;97.50
7232;DHT22;3657;49.630;11.018;2024-03-08T13:20:06;11.20;99.90
7232;DHT22;3657;49.630;11.018;2024-03-08T13:22:35;11.00;97.40
7232;DHT22;3657;49.630;11.018;2024-03-08T13:25:02;10.90;97.20
7232;DHT22;3657;49.630;11.018;2024-03-08T13:27:30;10.90;96.80
7232;DHT22;3657;49.630;11.018;2024-03-08T13:29:57;11.00;99.10
7232;DHT22;3657;49.630;11.018;2024-03-08T13:32:24;11.20;97.30
7232;DHT22;3657;49.630;11.018;2024-03-08T13:34:52;11.40;98.30
7232;DHT22;3657;49.630;11.018;2024-03-08T13:37:20;11.50;96.30
7232;DHT22;3657;49.630;11.018;2024-03-08T13:39:48;11.50;94.70
7232;DHT22;3657;49.630;11.018;2024-03-08T13:42:15;11.30;94.50
7232;DHT22;3657;49.630;11.018;2024-03-08T13:44:45;11.30;99.90
7232;DHT22;3657;49.630;11.018;2024-03-08T13:47:13;11.50;95.70
7232;DHT22;3657;49.630;11.018;2024-03-08T13:49:40;11.60;96.50
7232;DHT22;3657;49.630;11.018;2024-03-08T13:52:06;11.70;96.00
7232;DHT22;3657;49.630;11.018;2024-03-08T13:54:34;11.80;96.70
7232;DHT22;3657;49.630;11.018;2024-03-08T13:57:03;11.80;99.20
7232;DHT22;3657;49.630;11.018;2024-03-08T13:59:30;11.70;97.20
7232;DHT22;3657;49.630;11.018;2024-03-08T14:01:58;11.70;97.10
7232;DHT22;3657;49.630;11.018;2024-03-08T14:04:27;11.70;97.70
7232;DHT22;3657;49.630;11.018;2024-03-08T14:06:54;11.50;99.70
7232;DHT22;3657;49.630;11.018;2024-03-08T14:09:23;11.50;99.90
7232;DHT22;3657;49.630;11.018;2024-03-08T14:11:51;11.60;99.90
7232;DHT22;3657;49.630;11.018;2024-03-08T14:14:21;11.40;99.90
7232;DHT22;3657;49.630;11.018;2024-03-08T14:16:49;11.40;99.00
7232;DHT22;3657;49.630;11.018;2024-03-08T14:19:18;11.30;97.90
7232;DHT22;3657;49.630;11.018;2024-03-08T14:21:46;11.20;96.50
7232;DHT22;3657;49.630;11.018;2024-03-08T14:24:14;11.00;96.20
7232;DHT22;3657;49.630;11.018;2024-03-08T14:26:42;11.10;99.90
7232;DHT22;3657;49.630;11.018;2024-03-08T14:29:09;11.20;96.70
7232;DHT22;3657;49.630;11.018;2024-03-08T14:31:41;11.20;97.90
7232;DHT22;3657;49.630;11.018;2024-03-08T14:34:08;11.30;97.10
7232;DHT22;3657;49.630;11.018;2024-03-08T14:36:36;11.20;97.30
7232;DHT22;3657;49.630;11.018;2024-03-08T14:39:05;11.30;97.90
7232;DHT22;3657;49.630;11.018;2024-03-08T14:41:32;11.40;99.80
7232;DHT22;3657;49.630;11.018;2024-03-08T14:44:00;11.30;97.40
7232;DHT22;3657;49.630;11.018;2024-03-08T14:46:27;11.30;97.30
7232;DHT22;3657;49.630;11.018;2024-03-08T14:48:55;11.30;97.70
7232;DHT22;3657;49.630;11.018;2024-03-08T14:51:25;11.20;98.30
7232;DHT22;3657;49.630;11.018;2024-03-08T14:53:53;11.40;97.40
7232;DHT22;3657;49.630;11.018;2024-03-08T14:56:21;11.40;99.00
7232;DHT22;3657;49.630;11.018;2024-03-08T14:58:48;11.30;97.50
7232;DHT22;3657;49.630;11.018;2024-03-08T15:01:17;11.30;97.80
7232;DHT22;3657;49.630;11.018;2024-03-08T15:03:47;11.20;96.90
7232;DHT22;3657;49.630;11.018;2024-03-08T15:06:16;11.20;96.60
7232;DHT22;3657;49.630;11.018;2024-03-08T15:08:45;11.10;97.50
7232;DHT22;3657;49.630;11.018;2024-03-08T15:11:12;11.10;98.10
7232;DHT22;3657;49.630;11.018;2024-03-08T15:13:47;11.20;97.50
7232;DHT22;3657;49.630;11.018;2024-03-08T15:16:17;11.10;96.70
7232;DHT22;3657;49.630;11.018;2024-03-08T15:18:44;11.00;96.00
7232;DHT22;3657;49.630;11.018;2024-03-08T15:21:13;11.00;98.00
7232;DHT22;3657;49.630;11.018;2024-03-08T15:23:46;10.90;97.00
7232;DHT22;3657;49.630;11.018;2024-03-08T15:26:15;11.00;99.10
7232;DHT22;3657;49.630;11.018;2024-03-08T15:28:43;11.00;98.00
7232;DHT22;3657;49.630;11.018;2024-03-08T15:31:10;10.80;97.90
7232;DHT22;3657;49.630;11.018;2024-03-08T15:33:39;10.60;97.60
7232;DHT22;3657;49.630;11.018;2024-03-08T15:36:10;10.40;97.60
7232;DHT22;3657;49.630;11.018;2024-03-08T15:38:39;10.30;97.60
7232;DHT22;3657;49.630;11.018;2024-03-08T15:41:08;10.30;98.00
7232;DHT22;3657;49.630;11.018;2024-03-08T15:43:35;10.50;99.90
7232;DHT22;3657;49.630;11.018;2024-03-08T15:46:03;10.50;99.40
7232;DHT22;3657;49.630;11.018;2024-03-08T15:48:31;10.50;98.80
7232;DHT22;3657;49.630;11.018;2024-03-08T15:50:58;10.40;99.90
7232;DHT22;3657;49.630;11.018;2024-03-08T15:53:27;10.20;97.70
7232;DHT22;3657;49.630;11.018;2024-03-08T15:55:55;10.00;97.60
7232;DHT22;3657;49.630;11.018;2024-03-08T15:58:24;9.80;98.30
7232;DHT22;3657;49.630;11.018;2024-03-08T16:00:51;9.70;99.00
7232;DHT22;3657;49.630;11.018;2024-03-08T16:03:18;9.90;99.90
7232;DHT22;3657;49.630;11.018;2024-03-08T16:05:45;10.00;98.50